Time;durP1;ratioP1;P1;durP2;ratioP2;P2;SDS_P1;SDS_P2;PMS_P1;PMS_P2;Temp;Humidity;BMP_temperature;BMP_pressure;BME280_temperature;BME280_humidity;BME280_pressure;Samples;Min_cycle;Max_cycle;Signal;HPM_P1;HPM_P2
2023/01/19 00:01:23;;;;;;;126.82;53.25;;;8.10;99.90;;;;;;5056082;28;20036;-59
2023/01/19 00:03:50;;;;;;;120.50;53.88;;;8.10;99.90;;;;;;5056355;28;20392;-59
2023/01/19 00:06:16;;;;;;;168.00;67.00;;;8.10;99.90;;;;;;5055883;28;20108;-59
2023/01/19 00:08:47;;;;;;;155.30;60.75;;;8.10;99.90;;;;;;5056278;28;20040;-59
2023/01/19 00:11:13;;;;;;;97.63;42.70;;;8.10;99.90;;;;;;5055474;28;20036;-59
2023/01/19 00:13:39;;;;;;;102.43;46.67;;;8.00;99.90;;;;;;5055997;28;20106;-59
2023/01/19 00:16:08;;;;;;;88.55;39.83;;;8.00;99.90;;;;;;5055892;28;20112;-59
2023/01/19 00:18:34;;;;;;;62.10;29.25;;;7.90;99.90;;;;;;5052055;28;20480;-59
2023/01/19 00:21:00;;;;;;;214.25;84.75;;;7.90;99.90;;;;;;5035876;28;20091;-59
2023/01/19 00:23:26;;;;;;;599.55;236.43;;;7.90;99.90;;;;;;5035821;28;20036;-59
2023/01/19 00:25:52;;;;;;;662.70;283.70;;;7.80;99.90;;;;;;5035800;28;20026;-59
2023/01/19 00:28:18;;;;;;;261.00;99.97;;;7.80;99.90;;;;;;5035521;28;20368;-59
2023/01/19 00:30:44;;;;;;;140.30;58.60;;;7.90;99.90;;;;;;5041998;28;20052;-59
2023/01/19 00:33:15;;;;;;;76.80;34.25;;;7.80;99.90;;;;;;5055361;28;20390;-59
2023/01/19 00:35:44;;;;;;;59.65;28.67;;;7.80;99.90;;;;;;5055728;28;20037;-59
2023/01/19 00:38:13;;;;;;;45.33;22.65;;;7.80;99.90;;;;;;5055259;28;20032;-59
2023/01/19 00:40:39;;;;;;;126.80;56.22;;;7.90;99.90;;;;;;5055586;28;20041;-59
2023/01/19 00:43:05;;;;;;;74.53;34.72;;;7.70;99.90;;;;;;5055326;28;20051;-59
2023/01/19 00:45:32;;;;;;;55.90;26.92;;;7.80;99.90;;;;;;5055323;28;20452;-59
2023/01/19 00:47:58;;;;;;;47.95;23.88;;;7.70;99.90;;;;;;5055107;28;20053;-59
2023/01/19 00:50:27;;;;;;;58.97;28.85;;;7.60;99.90;;;;;;5055340;28;20081;-59
2023/01/19 00:52:55;;;;;;;65.10;31.10;;;7.60;99.90;;;;;;5055280;28;20032;-59
2023/01/19 00:55:22;;;;;;;44.67;24.27;;;7.50;99.90;;;;;;5054984;28;20040;-59
2023/01/19 00:57:48;;;;;;;38.60;21.65;;;7.60;99.90;;;;;;5055053;28;20520;-59
2023/01/19 01:00:18;;;;;;;42.55;21.95;;;7.60;99.90;;;;;;5054903;28;20182;-59
2023/01/19 01:02:44;;;;;;;36.13;19.08;;;7.50;99.90;;;;;;5054777;28;20028;-59
2023/01/19 01:05:11;;;;;;;35.47;18.38;;;7.50;99.90;;;;;;5054756;28;20035;-59
2023/01/19 01:07:43;;;;;;;67.40;36.03;;;7.50;99.90;;;;;;5054158;28;20059;-59
2023/01/19 01:10:12;;;;;;;62.30;30.35;;;7.60;99.90;;;;;;5054418;28;20506;-59
2023/01/19 01:12:38;;;;;;;62.83;31.80;;;7.60;99.90;;;;;;5054854;28;20082;-59
2023/01/19 01:15:06;;;;;;;62.25;30.85;;;7.60;99.90;;;;;;5054611;28;20437;-59
2023/01/19 01:17:32;;;;;;;53.13;27.63;;;7.50;99.90;;;;;;5054577;28;20029;-59
2023/01/19 01:19:58;;;;;;;53.30;27.25;;;7.40;99.90;;;;;;5039653;28;20057;-59
2023/01/19 01:22:24;;;;;;;53.90;28.02;;;7.40;99.90;;;;;;5034426;28;20155;-59
2023/01/19 01:24:50;;;;;;;53.75;28.08;;;7.40;99.90;;;;;;5034642;28;20449;-59
2023/01/19 01:27:16;;;;;;;41.95;22.48;;;7.40;99.90;;;;;;5034460;28;20025;-59
2023/01/19 01:29:45;;;;;;;38.83;20.95;;;7.40;99.90;;;;;;5034573;28;20033;-59
2023/01/19 01:32:13;;;;;;;65.53;34.15;;;7.50;99.90;;;;;;5052612;28;20029;-59
2023/01/19 01:34:39;;;;;;;58.67;29.98;;;7.30;99.90;;;;;;5054343;28;20025;-59
2023/01/19 01:37:07;;;;;;;71.32;36.85;;;7.20;99.90;;;;;;5054464;28;20036;-59
2023/01/19 01:39:34;;;;;;;139.55;76.05;;;7.30;99.90;;;;;;5054762;28;20104;-59
2023/01/19 01:42:00;;;;;;;73.60;37.13;;;7.20;99.90;;;;;;5054222;28;20033;-59
2023/01/19 01:44:52;;;;;;;78.75;38.70;;;7.20;99.90;;;;;;5054043;28;20112;-59
2023/01/19 01:47:42;;;;;;;115.22;53.42;;;7.20;99.90;;;;;;5053914;28;20025;-59
2023/01/19 01:50:19;;;;;;;88.00;41.17;;;7.30;99.90;;;;;;5027562;28;20033;-59
2023/01/19 01:53:13;;;;;;;71.38;35.67;;;7.50;99.90;;;;;;5054185;28;20087;-59
2023/01/19 01:55:48;;;;;;;65.60;33.67;;;7.40;99.90;;;;;;5051822;28;20490;-59
2023/01/19 01:58:15;;;;;;;75.90;37.53;;;7.50;99.90;;;;;;5053820;28;20037;-59
2023/01/19 02:03:27;;;;;;;62.88;34.28;;;7.40;99.90;;;;;;5053853;28;20037;-59
2023/01/19 02:05:56;;;;;;;62.25;33.35;;;7.50;99.90;;;;;;5054057;28;20025;-59
2023/01/19 02:14:15;;;;;;;65.63;33.75;;;7.40;99.90;;;;;;5053674;28;20061;-59
2023/01/19 02:16:41;;;;;;;52.10;26.88;;;7.40;99.90;;;;;;5053748;28;20423;-59
2023/01/19 02:19:12;;;;;;;50.30;26.30;;;7.40;99.90;;;;;;5045189;28;20025;-59
2023/01/19 02:21:50;;;;;;;58.25;30.45;;;7.40;99.90;;;;;;5033776;28;20040;-59
2023/01/19 02:24:17;;;;;;;62.95;31.92;;;7.30;99.90;;;;;;5033590;28;20029;-59
2023/01/19 02:26:46;;;;;;;71.80;36.33;;;7.30;99.90;;;;;;5033863;28;20021;-59
2023/01/19 02:29:21;;;;;;;67.68;34.88;;;7.30;99.90;;;;;;5033659;28;20029;-59
2023/01/19 02:31:47;;;;;;;73.75;35.30;;;7.20;99.90;;;;;;5048832;28;20113;-59
2023/01/19 02:34:17;;;;;;;66.88;37.15;;;7.20;99.90;;;;;;5053341;28;20048;-59
2023/01/19 02:36:50;;;;;;;73.50;38.00;;;7.10;99.90;;;;;;5053754;28;20080;-59
2023/01/19 02:39:21;;;;;;;84.10;40.47;;;7.20;99.90;;;;;;5053346;28;20107;-59
2023/01/19 02:41:53;;;;;;;73.47;36.88;;;7.20;99.90;;;;;;5053573;28;20033;-59
2023/01/19 02:44:20;;;;;;;68.72;33.47;;;7.20;99.90;;;;;;5053350;28;20486;-59
2023/01/19 02:46:46;;;;;;;49.63;24.10;;;7.20;99.90;;;;;;5053405;28;20040;-59
2023/01/19 02:49:12;;;;;;;38.95;19.58;;;7.20;99.90;;;;;;5053398;28;20033;-59
2023/01/19 02:51:41;;;;;;;40.28;19.58;;;7.20;99.90;;;;;;5053577;28;20032;-59
2023/01/19 02:54:28;;;;;;;45.88;24.23;;;7.20;99.90;;;;;;5053304;28;20394;-59
2023/01/19 02:57:09;;;;;;;58.22;31.23;;;7.20;99.90;;;;;;5053520;28;20502;-59
2023/01/19 03:00:13;;;;;;;67.65;35.83;;;7.30;99.90;;;;;;5053512;28;20044;-59
2023/01/19 03:03:03;;;;;;;32.17;19.08;;;7.30;99.90;;;;;;5053369;28;20028;-59
2023/01/19 03:05:43;;;;;;;27.48;16.23;;;7.30;99.90;;;;;;5053269;28;20037;-59
2023/01/19 03:08:30;;;;;;;27.58;15.70;;;7.20;99.90;;;;;;5053216;28;20037;-59
2023/01/19 03:10:56;;;;;;;31.30;16.45;;;7.20;99.90;;;;;;5053161;28;20077;-59
2023/01/19 03:13:31;;;;;;;29.10;16.23;;;7.30;99.90;;;;;;5053356;28;20033;-59
2023/01/19 03:16:03;;;;;;;29.52;17.35;;;7.40;99.90;;;;;;5053416;28;20053;-59
2023/01/19 03:18:32;;;;;;;31.88;17.77;;;7.30;99.90;;;;;;5050127;28;20484;-59
2023/01/19 03:21:02;;;;;;;36.85;20.60;;;7.40;99.90;;;;;;5033380;28;20427;-59
2023/01/19 03:23:31;;;;;;;34.85;19.35;;;7.40;99.90;;;;;;5033196;28;20460;-59
2023/01/19 03:25:59;;;;;;;27.00;15.63;;;7.40;99.90;;;;;;5033462;28;20017;-59
2023/01/19 03:28:28;;;;;;;25.52;13.98;;;7.40;99.90;;;;;;5032943;28;20033;-59
2023/01/19 03:31:04;;;;;;;26.20;14.68;;;7.40;99.90;;;;;;5042610;28;20108;-59
2023/01/19 03:33:36;;;;;;;21.95;12.95;;;7.30;99.90;;;;;;5056907;28;20105;-59
2023/01/19 03:36:15;;;;;;;28.27;16.52;;;7.30;99.90;;;;;;5056504;28;20120;-59
2023/01/19 03:38:45;;;;;;;26.58;15.23;;;7.40;99.90;;;;;;5056588;28;20043;-59
2023/01/19 03:41:15;;;;;;;24.63;15.13;;;7.30;99.90;;;;;;5056593;28;20025;-59
2023/01/19 03:43:43;;;;;;;30.17;15.98;;;7.40;99.90;;;;;;5056621;28;20029;-59
2023/01/19 03:46:10;;;;;;;32.33;18.48;;;7.40;99.90;;;;;;5056241;28;20445;-59
2023/01/19 03:48:36;;;;;;;33.08;18.15;;;7.40;99.90;;;;;;5056624;28;20029;-59
2023/01/19 03:51:06;;;;;;;29.17;17.23;;;7.30;99.90;;;;;;5056428;28;20036;-59
2023/01/19 03:53:32;;;;;;;32.88;18.63;;;7.40;99.90;;;;;;5056375;28;20025;-59
2023/01/19 03:55:58;;;;;;;33.13;18.13;;;7.50;99.90;;;;;;5038383;28;20136;-59
2023/01/19 03:58:24;;;;;;;32.03;17.83;;;7.40;99.90;;;;;;5056263;28;20080;-59
2023/01/19 04:00:50;;;;;;;38.60;18.88;;;7.30;99.90;;;;;;5056312;28;20123;-59
2023/01/19 04:03:17;;;;;;;43.28;19.85;;;7.20;99.90;;;;;;5056139;28;20033;-59
2023/01/19 04:05:43;;;;;;;40.38;21.65;;;7.40;99.90;;;;;;5056157;28;20025;-59
2023/01/19 04:08:09;;;;;;;43.03;20.23;;;7.30;99.90;;;;;;5055940;28;20040;-59
2023/01/19 04:10:36;;;;;;;38.78;19.52;;;7.30;99.90;;;;;;5056066;28;20057;-59
2023/01/19 04:13:03;;;;;;;37.58;21.27;;;7.30;99.90;;;;;;5056003;28;20032;-59
2023/01/19 04:15:30;;;;;;;51.65;24.02;;;7.30;99.90;;;;;;5055917;28;20039;-59
2023/01/19 04:17:57;;;;;;;78.40;33.70;;;7.20;99.90;;;;;;5055830;28;20079;-59
2023/01/19 04:20:25;;;;;;;112.63;46.88;;;7.10;99.90;;;;;;5036975;28;20026;-59
2023/01/19 04:22:51;;;;;;;191.57;73.55;;;7.20;99.90;;;;;;5035833;28;20356;-59
2023/01/19 04:25:17;;;;;;;183.07;70.43;;;7.10;99.90;;;;;;5035701;28;20036;-59
2023/01/19 04:27:43;;;;;;;201.05;74.80;;;7.10;99.90;;;;;;5036109;28;20036;-59
2023/01/19 04:30:09;;;;;;;203.65;76.93;;;7.20;99.90;;;;;;5037040;28;20052;-59
2023/01/19 04:32:35;;;;;;;190.65;70.45;;;7.30;99.90;;;;;;5055726;28;20043;-59
2023/01/19 04:35:01;;;;;;;202.73;73.88;;;7.10;99.90;;;;;;5055499;28;20209;-59
2023/01/19 04:37:27;;;;;;;172.93;67.70;;;7.10;99.90;;;;;;5055698;28;20025;-59
2023/01/19 04:39:53;;;;;;;167.88;63.80;;;7.10;99.90;;;;;;5055765;28;20382;-59
2023/01/19 04:42:20;;;;;;;176.90;68.03;;;7.00;99.90;;;;;;5055557;28;20108;-59
2023/01/19 04:44:46;;;;;;;183.85;73.13;;;7.10;99.90;;;;;;5055288;28;20055;-59
2023/01/19 04:47:12;;;;;;;178.48;72.45;;;7.20;99.90;;;;;;5055056;28;20017;-59
2023/01/19 04:49:38;;;;;;;180.88;72.57;;;7.20;99.90;;;;;;5055363;28;20033;-59
2023/01/19 04:52:05;;;;;;;212.05;84.85;;;7.30;99.90;;;;;;5055246;28;20467;-59
2023/01/19 04:54:31;;;;;;;203.52;85.00;;;7.40;99.90;;;;;;5055105;28;20396;-59
2023/01/19 04:56:57;;;;;;;204.23;82.28;;;7.30;99.90;;;;;;5055262;28;20032;-59
2023/01/19 04:59:23;;;;;;;194.55;80.63;;;7.20;99.90;;;;;;5054927;28;20036;-59
2023/01/19 05:01:49;;;;;;;203.32;80.60;;;7.30;99.90;;;;;;5055130;28;20165;-59
2023/01/19 05:04:15;;;;;;;183.27;68.07;;;7.20;99.90;;;;;;5054714;28;20029;-59
2023/01/19 05:06:41;;;;;;;156.30;60.22;;;7.30;99.90;;;;;;5055117;28;20560;-59
2023/01/19 05:09:07;;;;;;;162.55;63.90;;;7.30;99.90;;;;;;5054782;28;20065;-59
2023/01/19 05:11:36;;;;;;;128.45;52.05;;;7.30;99.90;;;;;;5054633;28;20041;-59
2023/01/19 05:14:02;;;;;;;145.73;57.95;;;7.30;99.90;;;;;;5054880;28;20032;-59
2023/01/19 05:16:28;;;;;;;160.23;60.47;;;7.30;99.90;;;;;;5054729;28;20056;-59
2023/01/19 05:18:54;;;;;;;183.57;66.45;;;7.40;99.90;;;;;;5048224;28;20033;-59
2023/01/19 05:21:20;;;;;;;184.43;69.50;;;7.40;99.90;;;;;;5034669;28;20036;-59
2023/01/19 05:23:46;;;;;;;166.68;63.42;;;7.40;99.90;;;;;;5034693;28;20098;-59
2023/01/19 05:26:12;;;;;;;180.27;77.43;;;7.50;99.90;;;;;;5034554;28;20029;-59
2023/01/19 05:28:38;;;;;;;171.02;71.57;;;7.50;99.90;;;;;;5033453;28;20040;-59
2023/01/19 05:31:04;;;;;;;172.20;69.22;;;7.60;99.90;;;;;;5043499;28;20467;-59
2023/01/19 05:33:30;;;;;;;143.40;57.33;;;7.60;99.90;;;;;;5054243;28;20407;-59
2023/01/19 05:35:56;;;;;;;138.57;54.42;;;7.60;99.90;;;;;;5054506;28;20032;-59
2023/01/19 05:38:22;;;;;;;119.20;47.60;;;7.70;99.90;;;;;;5054189;28;20102;-59
2023/01/19 05:40:48;;;;;;;133.95;53.95;;;7.60;99.90;;;;;;5054257;28;20066;-59
2023/01/19 05:43:17;;;;;;;113.50;45.78;;;7.60;99.90;;;;;;5054139;28;20687;-59
2023/01/19 05:45:44;;;;;;;116.93;46.50;;;7.60;99.90;;;;;;5054235;28;20032;-59
2023/01/19 05:48:10;;;;;;;115.05;46.90;;;7.60;99.90;;;;;;5054419;28;20036;-59
2023/01/19 05:50:36;;;;;;;114.85;47.75;;;7.60;99.90;;;;;;5054321;28;20044;-59
2023/01/19 05:53:02;;;;;;;113.28;46.42;;;7.40;99.90;;;;;;5054020;28;20074;-59
2023/01/19 05:55:28;;;;;;;152.02;60.95;;;7.40;99.90;;;;;;5054163;28;20035;-59
2023/01/19 05:57:54;;;;;;;171.63;62.97;;;7.30;99.90;;;;;;5054068;28;20467;-59
2023/01/19 06:00:20;;;;;;;122.63;49.28;;;7.30;99.90;;;;;;5053881;28;20017;-59
2023/01/19 06:02:48;;;;;;;115.85;49.53;;;7.50;99.90;;;;;;5054006;28;20021;-59
2023/01/19 06:05:15;;;;;;;160.48;63.15;;;7.50;99.90;;;;;;5053819;28;20025;-59
2023/01/19 06:07:41;;;;;;;145.40;58.30;;;7.50;99.90;;;;;;5054263;28;20039;-59
2023/01/19 06:10:07;;;;;;;164.00;68.70;;;7.50;99.90;;;;;;5053639;28;20041;-59
2023/01/19 06:12:33;;;;;;;207.00;89.80;;;7.50;99.90;;;;;;5053847;28;20487;-59
2023/01/19 06:14:59;;;;;;;202.73;83.20;;;7.40;99.90;;;;;;5052499;28;20061;-59
2023/01/19 06:17:25;;;;;;;236.75;104.97;;;7.50;99.90;;;;;;5053477;28;20064;-59
2023/01/19 06:19:51;;;;;;;240.35;108.50;;;7.60;99.90;;;;;;5037737;28;20383;-59
2023/01/19 06:22:17;;;;;;;250.00;111.88;;;7.60;99.90;;;;;;5033041;28;20033;-59
2023/01/19 06:24:43;;;;;;;239.77;103.40;;;7.70;99.90;;;;;;5033670;28;20029;-59
2023/01/19 06:27:10;;;;;;;331.63;151.18;;;7.60;99.90;;;;;;5032689;28;20044;-59
2023/01/19 06:29:36;;;;;;;175.40;81.10;;;7.60;99.90;;;;;;5036560;28;20041;-59
2023/01/19 06:32:02;;;;;;;210.45;99.22;;;7.60;99.90;;;;;;5033941;28;20388;-59
2023/01/19 06:34:28;;;;;;;343.48;156.98;;;7.70;99.90;;;;;;5033417;28;20029;-59
2023/01/19 06:36:57;;;;;;;181.07;86.10;;;7.70;99.90;;;;;;5036188;28;20473;-59
2023/01/19 06:39:24;;;;;;;112.35;51.85;;;7.70;99.90;;;;;;5053467;28;20102;-59
2023/01/19 06:41:50;;;;;;;115.10;55.20;;;7.70;99.90;;;;;;5053388;28;20121;-59
2023/01/19 06:44:16;;;;;;;124.88;54.25;;;7.70;99.90;;;;;;5036392;28;20415;-59
2023/01/19 06:46:42;;;;;;;132.38;56.88;;;7.70;99.90;;;;;;5033411;28;20022;-59
2023/01/19 06:49:08;;;;;;;128.85;55.75;;;7.80;99.90;;;;;;5031316;28;20057;-59
2023/01/19 06:51:34;;;;;;;114.00;52.63;;;7.70;99.90;;;;;;5032136;28;20029;-59
2023/01/19 06:54:00;;;;;;;111.00;52.33;;;7.70;99.90;;;;;;5032920;28;20041;-59
2023/01/19 06:56:25;;;;;;;95.00;46.50;;;7.80;99.90;;;;;;5031319;28;20033;-59
2023/01/19 06:58:54;;;;;;;95.63;47.05;;;7.90;99.90;;;;;;5044991;28;20087;-59
2023/01/19 07:01:20;;;;;;;109.90;54.38;;;8.10;99.90;;;;;;5034321;28;20036;-59
2023/01/19 07:03:46;;;;;;;136.07;65.97;;;8.30;99.90;;;;;;5034171;28;20022;-59
2023/01/19 07:06:12;;;;;;;124.50;63.00;;;8.50;99.90;;;;;;5036009;28;20064;-59
2023/01/19 07:08:38;;;;;;;120.20;58.20;;;9.00;99.90;;;;;;5038086;28;20079;-59
2023/01/19 07:11:07;;;;;;;110.28;52.78;;;9.30;99.90;;;;;;5052842;28;20060;-59
2023/01/19 07:13:34;;;;;;;112.93;51.55;;;9.20;99.90;;;;;;5057638;28;20035;-59
2023/01/19 07:16:09;;;;;;;103.70;50.10;;;9.20;99.90;;;;;;5057931;28;20033;-59
2023/01/19 07:18:36;;;;;;;114.03;52.50;;;9.10;99.90;;;;;;5056695;28;20474;-59
2023/01/19 07:21:02;;;;;;;115.80;53.08;;;9.10;99.90;;;;;;5057449;28;20389;-59
2023/01/19 07:23:29;;;;;;;105.85;51.55;;;9.00;99.90;;;;;;5060586;28;20029;-59
2023/01/19 07:26:00;;;;;;;114.93;53.13;;;8.90;99.90;;;;;;5056721;28;20459;-59
2023/01/19 07:28:26;;;;;;;;;;;8.90;99.90;;;;;;5057245;28;20021;-59
2023/01/19 07:30:54;;;;;;;120.65;55.92;;;8.70;99.90;;;;;;5056469;28;20274;-59
2023/01/19 07:33:23;;;;;;;121.90;52.05;;;8.60;99.90;;;;;;5056583;28;20033;-59
2023/01/19 07:35:52;;;;;;;115.07;51.58;;;8.60;99.90;;;;;;5056764;28;20036;-59
2023/01/19 07:38:18;;;;;;;115.75;54.05;;;8.40;99.90;;;;;;5055263;28;20033;-59
2023/01/19 07:40:47;;;;;;;134.65;66.60;;;8.40;99.90;;;;;;5055977;28;20032;-59
2023/01/19 07:43:14;;;;;;;136.93;62.92;;;8.40;99.90;;;;;;5056441;28;20083;-59
2023/01/19 07:45:42;;;;;;;155.88;64.72;;;8.40;99.90;;;;;;5056560;28;20060;-59
2023/01/19 07:48:08;;;;;;;137.90;61.90;;;8.40;99.90;;;;;;5056216;28;20025;-59
2023/01/19 07:50:33;;;;;;;103.38;49.97;;;8.50;99.90;;;;;;5055975;28;20485;-59
2023/01/19 07:53:07;;;;;;;131.55;63.42;;;8.50;99.90;;;;;;5054878;28;20127;-59
2023/01/19 07:55:34;;;;;;;146.65;62.03;;;8.60;99.90;;;;;;5052703;28;20107;-59
2023/01/19 07:58:00;;;;;;;116.72;55.90;;;8.50;99.90;;;;;;5057918;28;20045;-59
2023/01/19 08:00:26;;;;;;;121.78;54.13;;;8.40;99.90;;;;;;5051525;28;20479;-59
2023/01/19 08:02:57;;;;;;;115.28;56.63;;;8.40;99.90;;;;;;5036886;28;20041;-59
2023/01/19 08:05:29;;;;;;;131.43;65.38;;;8.50;99.90;;;;;;5036220;28;20029;-59
2023/01/19 08:07:57;;;;;;;115.38;59.08;;;8.40;99.90;;;;;;5046631;28;20104;-59
2023/01/19 08:10:30;;;;;;;111.90;57.65;;;8.30;99.90;;;;;;5057315;28;20575;-59
2023/01/19 08:12:57;;;;;;;139.00;67.88;;;8.20;99.90;;;;;;5054841;28;20104;-59
2023/01/19 08:15:24;;;;;;;138.20;68.13;;;8.20;99.90;;;;;;5056017;28;20035;-59
2023/01/19 08:18:10;;;;;;;186.73;83.15;;;8.10;99.90;;;;;;5056260;28;20041;-58
2023/01/19 08:20:36;;;;;;;243.13;93.38;;;8.00;99.90;;;;;;5041063;28;20485;-59
2023/01/19 08:23:04;;;;;;;240.45;91.53;;;7.80;99.90;;;;;;5068788;28;20028;-59
2023/01/19 08:25:43;;;;;;;236.25;88.43;;;7.90;99.90;;;;;;5076731;28;20033;-59
2023/01/19 08:28:10;;;;;;;253.38;95.35;;;7.90;99.90;;;;;;5064755;28;20079;-59
2023/01/19 08:30:37;;;;;;;254.18;90.13;;;7.90;99.90;;;;;;5043423;28;20432;-59
2023/01/19 08:33:03;;;;;;;247.82;90.07;;;7.80;99.90;;;;;;5071687;28;20601;-59
2023/01/19 08:35:30;;;;;;;270.48;101.30;;;8.00;99.90;;;;;;5055796;28;20453;-59
2023/01/19 08:38:00;;;;;;;268.67;96.32;;;8.10;99.90;;;;;;5055611;28;20029;-59
2023/01/19 08:40:27;;;;;;;258.60;93.45;;;8.10;99.90;;;;;;5055409;28;20033;-59
2023/01/19 08:42:59;;;;;;;269.58;95.43;;;8.20;99.90;;;;;;5066625;28;20120;-59
2023/01/19 08:45:27;;;;;;;280.63;97.90;;;8.40;99.90;;;;;;5055311;28;20027;-59
2023/01/19 08:47:56;;;;;;;266.45;94.03;;;8.70;99.90;;;;;;5055546;28;20021;-59
2023/01/19 08:50:22;;;;;;;232.98;86.25;;;9.20;99.90;;;;;;5067295;28;20112;-59
2023/01/19 08:52:48;;;;;;;233.05;84.75;;;9.70;99.90;;;;;;5055665;28;20043;-59
2023/01/19 08:55:14;;;;;;;213.10;81.35;;;10.20;99.90;;;;;;5054934;28;20418;-59
2023/01/19 08:57:41;;;;;;;197.50;78.43;;;11.50;99.90;;;;;;5053895;28;20087;-59
2023/01/19 09:00:09;;;;;;;199.38;75.80;;;12.40;99.90;;;;;;5054181;28;20021;-60
2023/01/19 09:02:36;;;;;;;207.23;78.68;;;12.60;99.90;;;;;;5052494;28;20083;-60
2023/01/19 09:05:03;;;;;;;192.85;71.97;;;12.80;99.90;;;;;;5054549;28;20032;-60
2023/01/19 09:07:29;;;;;;;191.70;70.00;;;12.90;99.90;;;;;;5054594;28;20025;-60
2023/01/19 09:09:55;;;;;;;165.38;65.60;;;12.90;99.90;;;;;;5059787;28;20474;-60
2023/01/19 09:12:24;;;;;;;155.00;62.55;;;12.70;99.90;;;;;;5067676;28;20032;-60
2023/01/19 09:14:50;;;;;;;160.05;62.38;;;12.30;99.90;;;;;;5059832;28;20024;-60
2023/01/19 09:17:16;;;;;;;140.68;57.00;;;12.10;99.90;;;;;;5036319;28;20504;-60
2023/01/19 09:19:42;;;;;;;141.68;58.15;;;11.50;99.90;;;;;;5054101;28;20025;-60
2023/01/19 09:22:08;;;;;;;112.20;49.22;;;11.20;99.90;;;;;;5054630;28;20462;-60
2023/01/19 09:24:35;;;;;;;96.32;45.30;;;10.90;99.90;;;;;;5074448;28;20035;-60
2023/01/19 09:27:02;;;;;;;113.55;51.08;;;10.60;99.90;;;;;;5063890;28;20017;-60
2023/01/19 09:29:28;;;;;;;120.07;52.72;;;10.30;99.90;;;;;;5060476;28;20032;-60
2023/01/19 09:31:54;;;;;;;99.97;45.05;;;10.30;99.90;;;;;;5058797;28;20390;-59
2023/01/19 09:34:36;;;;;;;75.53;35.33;;;10.10;99.90;;;;;;5057625;28;20367;-60
2023/01/19 09:37:02;;;;;;;34.63;17.20;;;9.90;99.90;;;;;;5058325;28;20119;-60
2023/01/19 09:39:28;;;;;;;16.80;9.05;;;9.50;99.90;;;;;;5059739;28;20597;-60
2023/01/19 09:42:20;;;;;;;9.52;5.20;;;9.20;99.90;;;;;;5056701;28;20025;-60
2023/01/19 09:44:52;;;;;;;9.85;4.18;;;8.80;99.90;;;;;;5023956;28;20055;-59
2023/01/19 09:47:26;;;;;;;15.48;5.22;;;8.50;99.90;;;;;;5053561;28;20040;-60
2023/01/19 09:50:11;;;;;;;9.63;4.50;;;8.30;99.90;;;;;;5053568;28;20075;-60
2023/01/19 09:52:42;;;;;;;12.48;4.05;;;8.10;99.90;;;;;;5034251;28;20040;-60
2023/01/19 09:55:21;;;;;;;15.00;4.55;;;8.00;99.90;;;;;;5034293;28;20037;-60
2023/01/19 09:57:47;;;;;;;4.72;2.53;;;7.80;99.90;;;;;;5034120;28;20044;-60
2023/01/19 10:00:16;;;;;;;9.57;4.60;;;7.80;99.90;;;;;;5034282;28;20500;-60
2023/01/19 10:02:54;;;;;;;10.30;4.43;;;7.80;99.90;;;;;;5034049;28;20464;-59
2023/01/19 10:05:24;;;;;;;13.20;4.53;;;7.70;99.90;;;;;;5057831;28;20081;-60
2023/01/19 10:07:56;;;;;;;9.95;5.00;;;7.70;99.90;;;;;;5074043;28;20382;-60
2023/01/19 10:10:25;;;;;;;9.45;4.55;;;7.60;99.90;;;;;;5071288;28;20119;-60
2023/01/19 10:13:06;;;;;;;10.85;5.55;;;7.50;99.90;;;;;;5053511;28;20025;-60
2023/01/19 10:15:41;;;;;;;13.95;6.60;;;7.50;99.90;;;;;;5052735;28;20017;-60
2023/01/19 10:18:18;;;;;;;24.40;12.27;;;7.50;99.90;;;;;;5052519;28;20431;-60
2023/01/19 10:21:13;;;;;;;19.85;9.13;;;7.40;99.90;;;;;;5033898;28;20033;-60
2023/01/19 10:24:05;;;;;;;35.20;18.85;;;7.30;99.90;;;;;;5035295;28;20037;-60
2023/01/19 10:26:35;;;;;;;35.03;17.58;;;7.10;99.90;;;;;;5053133;28;20021;-60
2023/01/19 10:29:14;;;;;;;17.00;9.10;;;7.20;99.90;;;;;;5052399;28;20429;-60
2023/01/19 10:31:43;;;;;;;17.08;9.80;;;7.20;99.90;;;;;;5049718;28;20037;-60
2023/01/19 10:34:19;;;;;;;13.40;5.75;;;7.10;99.90;;;;;;5066660;28;20028;-60
2023/01/19 10:36:48;;;;;;;8.05;3.90;;;7.10;99.90;;;;;;5053620;28;20538;-60
2023/01/19 10:39:18;;;;;;;9.75;5.32;;;7.10;99.90;;;;;;5053815;28;20094;-60
2023/01/19 10:41:49;;;;;;;8.30;4.65;;;7.20;99.90;;;;;;5056185;28;20067;-60
2023/01/19 10:44:24;;;;;;;10.52;4.53;;;7.30;99.90;;;;;;5057711;28;20085;-60
2023/01/19 10:46:51;;;;;;;13.48;6.63;;;7.30;99.90;;;;;;5057892;28;20171;-59
2023/01/19 10:49:26;;;;;;;10.55;5.30;;;7.30;99.90;;;;;;5057361;28;20041;-59
2023/01/19 10:51:54;;;;;;;13.05;5.43;;;7.30;99.90;;;;;;5057773;28;20068;-59
2023/01/19 10:54:21;;;;;;;12.48;6.15;;;7.30;99.90;;;;;;5057548;28;20032;-59
2023/01/19 10:57:00;;;;;;;11.48;6.32;;;7.50;99.90;;;;;;5056822;28;20051;-59
2023/01/19 10:59:50;;;;;;;10.32;5.00;;;7.40;99.90;;;;;;5054773;28;20471;-60
2023/01/19 11:02:26;;;;;;;11.65;4.88;;;7.40;99.90;;;;;;5059512;28;20028;-59
2023/01/19 11:04:55;;;;;;;10.75;5.68;;;7.40;99.90;;;;;;5049469;28;20087;-59
2023/01/19 11:07:25;;;;;;;8.73;4.95;;;7.50;99.90;;;;;;5056944;28;20024;-59
2023/01/19 11:10:14;;;;;;;9.70;3.90;;;7.70;99.90;;;;;;5057558;28;20132;-59
2023/01/19 11:12:51;;;;;;;8.50;4.68;;;7.80;99.90;;;;;;5053973;28;20044;-59
2023/01/19 11:15:21;;;;;;;9.55;5.15;;;7.80;99.90;;;;;;5070450;28;20051;-59
2023/01/19 11:17:52;;;;;;;8.85;5.18;;;7.80;99.90;;;;;;5068175;28;20033;-59
2023/01/19 11:20:24;;;;;;;14.55;6.60;;;8.00;99.90;;;;;;5068517;28;20047;-60
2023/01/19 11:23:23;;;;;;;14.38;6.90;;;8.10;99.90;;;;;;5065075;28;20022;-60
2023/01/19 11:25:56;;;;;;;12.00;6.13;;;8.10;99.90;;;;;;5039961;28;20033;-60
2023/01/19 11:28:29;;;;;;;9.48;5.43;;;8.30;99.90;;;;;;5062693;28;20104;-59
2023/01/19 11:31:00;;;;;;;5.45;3.88;;;8.40;99.90;;;;;;5056736;28;20112;-59
2023/01/19 11:33:34;;;;;;;23.83;11.98;;;8.30;99.90;;;;;;5064332;28;20516;-60
2023/01/19 11:36:15;;;;;;;12.38;6.38;;;8.40;99.90;;;;;;5062742;28;20561;-60
2023/01/19 11:38:44;;;;;;;9.75;5.70;;;8.40;99.90;;;;;;5068055;28;20017;-60
2023/01/19 11:41:34;;;;;;;5.03;3.10;;;8.50;99.90;;;;;;5057179;28;20364;-59
2023/01/19 11:44:20;;;;;;;8.00;4.13;;;8.50;99.90;;;;;;5065773;28;20778;-60
2023/01/19 11:46:53;;;;;;;12.98;4.68;;;8.40;99.90;;;;;;5062064;28;20332;-60
2023/01/19 11:49:45;;;;;;;21.00;9.18;;;8.30;99.90;;;;;;5061028;28;20116;-60
2023/01/19 11:52:21;;;;;;;10.45;5.57;;;8.30;99.90;;;;;;5056044;28;20029;-60
2023/01/19 11:55:13;;;;;;;15.88;7.88;;;8.30;99.90;;;;;;5064121;28;20394;-60
2023/01/19 11:57:46;;;;;;;10.40;5.60;;;8.20;99.90;;;;;;5052732;28;20083;-59
2023/01/19 12:00:30;;;;;;;13.57;8.00;;;8.00;99.90;;;;;;5065692;28;20569;-60
2023/01/19 12:03:11;;;;;;;39.42;20.38;;;8.10;99.90;;;;;;5054869;28;20018;-59
2023/01/19 12:05:42;;;;;;;22.20;11.70;;;8.20;99.90;;;;;;5054085;28;20471;-59
2023/01/19 12:08:14;;;;;;;12.68;6.20;;;8.30;99.90;;;;;;5053926;28;20036;-59
2023/01/19 12:10:49;;;;;;;13.02;6.22;;;8.40;99.90;;;;;;5046359;28;20044;-60
2023/01/19 12:13:21;;;;;;;8.57;4.53;;;8.40;99.90;;;;;;5047577;28;20507;-60
2023/01/19 12:15:54;;;;;;;7.35;4.60;;;8.50;99.90;;;;;;5053706;28;20028;-60
2023/01/19 12:18:28;;;;;;;12.10;5.20;;;8.60;99.90;;;;;;5049652;28;20032;-60
2023/01/19 12:20:55;;;;;;;9.35;4.72;;;8.60;99.90;;;;;;5059700;28;20021;-59
2023/01/19 12:23:35;;;;;;;10.93;7.00;;;8.80;99.90;;;;;;5055357;28;20028;-59
2023/01/19 12:26:21;;;;;;;10.40;6.70;;;8.90;99.90;;;;;;5051438;28;20480;-59
2023/01/19 12:28:51;;;;;;;6.38;4.10;;;8.90;99.90;;;;;;5051265;28;20060;-60
2023/01/19 12:31:21;;;;;;;10.27;4.50;;;8.80;99.90;;;;;;5057310;28;20021;-60
2023/01/19 12:33:47;;;;;;;3.97;2.58;;;8.70;99.90;;;;;;5076352;28;20040;-60
2023/01/19 12:36:16;;;;;;;3.30;2.05;;;8.80;99.90;;;;;;5048369;28;20512;-59
2023/01/19 12:39:00;;;;;;;6.55;2.83;;;8.70;99.90;;;;;;5048768;28;20116;-59
2023/01/19 12:41:32;;;;;;;3.17;1.85;;;8.60;99.90;;;;;;5052404;28;20087;-59
2023/01/19 12:44:14;;;;;;;1.77;1.27;;;8.40;99.90;;;;;;5055198;28;20057;-59
2023/01/19 12:47:05;;;;;;;1.45;1.30;;;8.30;99.90;;;;;;5046233;28;20032;-59
2023/01/19 12:49:31;;;;;;;2.53;1.85;;;8.20;99.90;;;;;;5047043;28;20043;-59
2023/01/19 12:52:21;;;;;;;1.70;1.55;;;8.10;99.90;;;;;;5062197;28;20378;-59
2023/01/19 12:55:02;;;;;;;2.67;1.80;;;8.00;99.90;;;;;;5057583;28;20106;-58
2023/01/19 12:57:36;;;;;;;2.55;1.65;;;7.90;99.90;;;;;;5050241;28;20029;-58
2023/01/19 13:00:23;;;;;;;3.92;2.03;;;8.00;99.90;;;;;;5062403;28;20033;-58